KDSM

Des Moines International Airport

Des Moines, Iowa, USA
KDSM 161736Z 1618/1718 02005KT P6SM FEW200
Issued Valid From Valid To
Jul-16 @ 17:36 UTC
(3 hours ago)
Jul-16 @ 18:00 UTC
(2 hours ago)
Jul-17 @ 18:00 UTC
(in 22 hours)
Jul-16 @ 18:00 to Jul-17 @ 18:00
KDSM 161736Z 1618/1718 02005KT P6SM FEW200
Wind Visibility Clouds
20° at 5 knots Greater than 6 miles
  • Few at 20,000' AGL
KDSM 161736Z 1618/1718 02005KT P6SM FEW200
Issued Jul-16 @ 17:36 UTC
(3 hours ago)
Valid From Jul-16 @ 18:00 UTC
(2 hours ago)
Valid To Jul-17 @ 18:00 UTC
(in 22 hours)
Jul-16 @ 18:00 - Jul-17 @ 18:00
Wind Visibility
20° at 5 knots Greater than 6 miles
Clouds
  • Few at 20,000' AGL